sensor_id;sensor_type;location;lat;lon;timestamp;temperature;humidity
19292;DHT22;9779;51.756;7.450;2023-09-19T00:02:16;17.10;1.00
19292;DHT22;9779;51.756;7.450;2023-09-19T00:04:43;17.00;1.00
19292;DHT22;9779;51.756;7.450;2023-09-19T00:07:08;17.00;99.90
19292;DHT22;9779;51.756;7.450;2023-09-19T00:09:34;16.90;99.90
19292;DHT22;9779;51.756;7.450;2023-09-19T00:12:06;16.90;1.00
19292;DHT22;9779;51.756;7.450;2023-09-19T00:14:32;16.90;1.00
19292;DHT22;9779;51.756;7.450;2023-09-19T00:17:01;16.80;1.00
19292;DHT22;9779;51.756;7.450;2023-09-19T00:19:31;16.80;1.00
19292;DHT22;9779;51.756;7.450;2023-09-19T00:21:58;16.80;1.00
19292;DHT22;9779;51.756;7.450;2023-09-19T00:24:23;16.80;1.00
19292;DHT22;9779;51.756;7.450;2023-09-19T00:26:49;16.80;1.00
19292;DHT22;9779;51.756;7.450;2023-09-19T00:29:14;16.80;1.00
19292;DHT22;9779;51.756;7.450;2023-09-19T00:31:43;16.80;1.00
19292;DHT22;9779;51.756;7.450;2023-09-19T00:34:09;16.70;1.00
19292;DHT22;9779;51.756;7.450;2023-09-19T00:36:36;16.70;1.00
19292;DHT22;9779;51.756;7.450;2023-09-19T00:39:04;16.70;1.00
19292;DHT22;9779;51.756;7.450;2023-09-19T00:41:34;16.60;1.00
19292;DHT22;9779;51.756;7.450;2023-09-19T00:44:01;16.60;1.00
19292;DHT22;9779;51.756;7.450;2023-09-19T00:46:28;16.70;1.00
19292;DHT22;9779;51.756;7.450;2023-09-19T00:48:53;16.60;1.00
19292;DHT22;9779;51.756;7.450;2023-09-19T00:51:20;16.60;1.00
19292;DHT22;9779;51.756;7.450;2023-09-19T00:53:47;16.60;1.00
19292;DHT22;9779;51.756;7.450;2023-09-19T00:56:14;16.60;1.00
19292;DHT22;9779;51.756;7.450;2023-09-19T00:58:40;16.60;1.00
19292;DHT22;9779;51.756;7.450;2023-09-19T01:01:06;16.60;1.00
19292;DHT22;9779;51.756;7.450;2023-09-19T01:03:37;16.60;1.00
19292;DHT22;9779;51.756;7.450;2023-09-19T01:06:02;16.60;1.00
19292;DHT22;9779;51.756;7.450;2023-09-19T01:08:28;16.50;1.00
19292;DHT22;9779;51.756;7.450;2023-09-19T01:11:12;16.50;1.00
19292;DHT22;9779;51.756;7.450;2023-09-19T01:16:12;16.50;1.00
19292;DHT22;9779;51.756;7.450;2023-09-19T01:18:47;16.50;1.00
19292;DHT22;9779;51.756;7.450;2023-09-19T01:21:31;16.50;1.00
19292;DHT22;9779;51.756;7.450;2023-09-19T01:24:40;16.40;1.00
19292;DHT22;9779;51.756;7.450;2023-09-19T01:29:50;16.40;1.00
19292;DHT22;9779;51.756;7.450;2023-09-19T01:32:17;16.40;1.00
19292;DHT22;9779;51.756;7.450;2023-09-19T01:34:48;16.40;1.00
19292;DHT22;9779;51.756;7.450;2023-09-19T01:37:17;16.40;1.00
19292;DHT22;9779;51.756;7.450;2023-09-19T01:39:50;16.40;1.00
19292;DHT22;9779;51.756;7.450;2023-09-19T01:42:24;16.40;99.90
19292;DHT22;9779;51.756;7.450;2023-09-19T01:45:03;16.30;99.90
19292;DHT22;9779;51.756;7.450;2023-09-19T01:47:42;16.30;99.90
19292;DHT22;9779;51.756;7.450;2023-09-19T01:50:32;16.20;99.90
19292;DHT22;9779;51.756;7.450;2023-09-19T01:53:18;16.10;99.90
19292;DHT22;9779;51.756;7.450;2023-09-19T01:55:49;16.20;99.90
19292;DHT22;9779;51.756;7.450;2023-09-19T01:58:21;16.10;99.90
19292;DHT22;9779;51.756;7.450;2023-09-19T02:00:51;16.10;99.90
19292;DHT22;9779;51.756;7.450;2023-09-19T02:03:17;16.10;99.90
19292;DHT22;9779;51.756;7.450;2023-09-19T02:05:49;16.10;99.90
19292;DHT22;9779;51.756;7.450;2023-09-19T02:08:17;16.00;99.90
19292;DHT22;9779;51.756;7.450;2023-09-19T02:10:43;16.00;1.00
19292;DHT22;9779;51.756;7.450;2023-09-19T02:13:17;15.90;1.00
19292;DHT22;9779;51.756;7.450;2023-09-19T02:15:43;15.90;1.00
19292;DHT22;9779;51.756;7.450;2023-09-19T02:18:10;15.90;1.00
19292;DHT22;9779;51.756;7.450;2023-09-19T02:20:37;15.90;1.00
19292;DHT22;9779;51.756;7.450;2023-09-19T02:23:03;15.90;1.00
19292;DHT22;9779;51.756;7.450;2023-09-19T02:25:29;15.70;1.00
19292;DHT22;9779;51.756;7.450;2023-09-19T02:27:56;15.70;1.00
19292;DHT22;9779;51.756;7.450;2023-09-19T02:30:26;15.80;1.00
19292;DHT22;9779;51.756;7.450;2023-09-19T02:32:52;15.80;1.00
19292;DHT22;9779;51.756;7.450;2023-09-19T02:35:18;15.70;1.00
19292;DHT22;9779;51.756;7.450;2023-09-19T02:37:47;15.70;1.00
19292;DHT22;9779;51.756;7.450;2023-09-19T02:40:13;15.70;1.00
19292;DHT22;9779;51.756;7.450;2023-09-19T02:42:46;15.60;1.00
19292;DHT22;9779;51.756;7.450;2023-09-19T02:45:19;15.60;1.00
19292;DHT22;9779;51.756;7.450;2023-09-19T02:47:48;15.60;1.00
19292;DHT22;9779;51.756;7.450;2023-09-19T02:50:14;15.50;13.40
19292;DHT22;9779;51.756;7.450;2023-09-19T02:52:44;15.50;1.00
19292;DHT22;9779;51.756;7.450;2023-09-19T02:55:12;15.50;1.00
19292;DHT22;9779;51.756;7.450;2023-09-19T02:57:39;15.40;1.00
19292;DHT22;9779;51.756;7.450;2023-09-19T03:00:09;15.50;1.00
19292;DHT22;9779;51.756;7.450;2023-09-19T03:02:38;15.40;99.90
19292;DHT22;9779;51.756;7.450;2023-09-19T03:05:06;15.40;97.50
19292;DHT22;9779;51.756;7.450;2023-09-19T03:07:32;15.30;1.00
19292;DHT22;9779;51.756;7.450;2023-09-19T03:09:57;15.30;1.00
19292;DHT22;9779;51.756;7.450;2023-09-19T03:12:23;15.20;1.00
19292;DHT22;9779;51.756;7.450;2023-09-19T03:14:48;15.20;1.00
19292;DHT22;9779;51.756;7.450;2023-09-19T03:17:15;15.20;1.00
19292;DHT22;9779;51.756;7.450;2023-09-19T03:19:41;15.20;1.00
19292;DHT22;9779;51.756;7.450;2023-09-19T03:22:06;15.20;99.90
19292;DHT22;9779;51.756;7.450;2023-09-19T03:24:33;15.10;99.90
19292;DHT22;9779;51.756;7.450;2023-09-19T03:26:59;15.20;99.90
19292;DHT22;9779;51.756;7.450;2023-09-19T03:29:24;15.20;98.60
19292;DHT22;9779;51.756;7.450;2023-09-19T03:31:51;15.10;1.00
19292;DHT22;9779;51.756;7.450;2023-09-19T03:34:16;15.10;99.90
19292;DHT22;9779;51.756;7.450;2023-09-19T03:36:42;15.10;99.90
19292;DHT22;9779;51.756;7.450;2023-09-19T03:39:08;15.00;1.00
19292;DHT22;9779;51.756;7.450;2023-09-19T03:41:33;15.10;51.30
19292;DHT22;9779;51.756;7.450;2023-09-19T03:44:01;15.10;99.90
19292;DHT22;9779;51.756;7.450;2023-09-19T03:46:28;15.00;1.00
19292;DHT22;9779;51.756;7.450;2023-09-19T03:48:53;15.00;60.00
19292;DHT22;9779;51.756;7.450;2023-09-19T03:51:20;15.00;1.00
19292;DHT22;9779;51.756;7.450;2023-09-19T03:53:46;15.00;1.00
19292;DHT22;9779;51.756;7.450;2023-09-19T03:56:11;15.00;1.00
19292;DHT22;9779;51.756;7.450;2023-09-19T03:58:37;15.00;16.90
19292;DHT22;9779;51.756;7.450;2023-09-19T04:01:05;15.00;90.40
19292;DHT22;9779;51.756;7.450;2023-09-19T04:03:34;14.90;59.60
19292;DHT22;9779;51.756;7.450;2023-09-19T04:06:11;14.90;99.90
19292;DHT22;9779;51.756;7.450;2023-09-19T04:08:37;14.90;99.90
19292;DHT22;9779;51.756;7.450;2023-09-19T04:11:03;14.90;1.00
19292;DHT22;9779;51.756;7.450;2023-09-19T04:13:28;14.80;99.90
19292;DHT22;9779;51.756;7.450;2023-09-19T04:15:54;14.70;1.00
19292;DHT22;9779;51.756;7.450;2023-09-19T04:18:19;14.80;1.00
19292;DHT22;9779;51.756;7.450;2023-09-19T04:20:49;14.70;1.00
19292;DHT22;9779;51.756;7.450;2023-09-19T04:23:15;14.80;1.00
19292;DHT22;9779;51.756;7.450;2023-09-19T04:25:42;14.70;99.90
19292;DHT22;9779;51.756;7.450;2023-09-19T04:28:08;14.70;1.00
19292;DHT22;9779;51.756;7.450;2023-09-19T04:30:36;14.70;1.00
19292;DHT22;9779;51.756;7.450;2023-09-19T04:33:02;14.70;1.00
19292;DHT22;9779;51.756;7.450;2023-09-19T04:37:57;14.70;99.90
19292;DHT22;9779;51.756;7.450;2023-09-19T04:40:23;14.60;99.90
19292;DHT22;9779;51.756;7.450;2023-09-19T04:42:53;14.70;99.90
19292;DHT22;9779;51.756;7.450;2023-09-19T04:45:24;14.60;99.90
19292;DHT22;9779;51.756;7.450;2023-09-19T04:47:50;14.60;99.90
19292;DHT22;9779;51.756;7.450;2023-09-19T04:50:16;14.60;99.90
19292;DHT22;9779;51.756;7.450;2023-09-19T04:52:44;14.60;99.90
19292;DHT22;9779;51.756;7.450;2023-09-19T04:55:16;14.60;99.90
19292;DHT22;9779;51.756;7.450;2023-09-19T04:57:46;14.60;99.90
19292;DHT22;9779;51.756;7.450;2023-09-19T05:00:13;14.60;99.90
19292;DHT22;9779;51.756;7.450;2023-09-19T05:02:40;14.50;99.90
19292;DHT22;9779;51.756;7.450;2023-09-19T05:05:08;14.50;99.90
19292;DHT22;9779;51.756;7.450;2023-09-19T05:07:34;14.50;99.90
19292;DHT22;9779;51.756;7.450;2023-09-19T05:10:00;14.50;99.90
19292;DHT22;9779;51.756;7.450;2023-09-19T05:12:28;14.50;99.90
19292;DHT22;9779;51.756;7.450;2023-09-19T05:14:55;14.50;99.90
19292;DHT22;9779;51.756;7.450;2023-09-19T05:17:20;14.50;99.90
19292;DHT22;9779;51.756;7.450;2023-09-19T05:19:46;14.40;1.00
19292;DHT22;9779;51.756;7.450;2023-09-19T05:22:12;14.40;1.00
19292;DHT22;9779;51.756;7.450;2023-09-19T05:24:37;14.40;1.00
19292;DHT22;9779;51.756;7.450;2023-09-19T05:27:04;14.40;1.00
19292;DHT22;9779;51.756;7.450;2023-09-19T05:29:33;14.50;1.00
19292;DHT22;9779;51.756;7.450;2023-09-19T05:31:59;14.40;1.00
19292;DHT22;9779;51.756;7.450;2023-09-19T05:34:24;14.40;99.90
19292;DHT22;9779;51.756;7.450;2023-09-19T05:36:53;14.40;99.90
19292;DHT22;9779;51.756;7.450;2023-09-19T05:39:20;14.40;1.00
19292;DHT22;9779;51.756;7.450;2023-09-19T05:41:45;14.40;1.00
19292;DHT22;9779;51.756;7.450;2023-09-19T05:44:13;14.40;1.00
19292;DHT22;9779;51.756;7.450;2023-09-19T05:46:39;14.40;1.00
19292;DHT22;9779;51.756;7.450;2023-09-19T05:49:05;14.40;1.00
19292;DHT22;9779;51.756;7.450;2023-09-19T05:51:31;14.40;1.00
19292;DHT22;9779;51.756;7.450;2023-09-19T05:54:11;14.40;99.90
19292;DHT22;9779;51.756;7.450;2023-09-19T05:56:46;14.40;99.90
19292;DHT22;9779;51.756;7.450;2023-09-19T06:02:42;14.50;99.90
19292;DHT22;9779;51.756;7.450;2023-09-19T06:05:10;14.50;99.90
19292;DHT22;9779;51.756;7.450;2023-09-19T06:07:36;14.50;99.90
19292;DHT22;9779;51.756;7.450;2023-09-19T06:10:05;14.60;99.90
19292;DHT22;9779;51.756;7.450;2023-09-19T06:12:50;14.60;99.90
19292;DHT22;9779;51.756;7.450;2023-09-19T06:15:45;14.60;99.90
19292;DHT22;9779;51.756;7.450;2023-09-19T06:18:12;14.60;99.90
19292;DHT22;9779;51.756;7.450;2023-09-19T06:20:46;14.60;99.90
19292;DHT22;9779;51.756;7.450;2023-09-19T06:23:12;14.60;99.90
19292;DHT22;9779;51.756;7.450;2023-09-19T06:25:37;14.70;99.90
19292;DHT22;9779;51.756;7.450;2023-09-19T06:28:03;14.70;99.90
19292;DHT22;9779;51.756;7.450;2023-09-19T06:30:30;14.70;99.90
19292;DHT22;9779;51.756;7.450;2023-09-19T06:32:57;14.70;99.90
19292;DHT22;9779;51.756;7.450;2023-09-19T06:35:23;14.70;99.90
19292;DHT22;9779;51.756;7.450;2023-09-19T06:37:49;14.70;99.90
19292;DHT22;9779;51.756;7.450;2023-09-19T06:40:16;14.70;99.90
19292;DHT22;9779;51.756;7.450;2023-09-19T06:42:43;14.80;99.90
19292;DHT22;9779;51.756;7.450;2023-09-19T06:45:12;14.80;99.90
19292;DHT22;9779;51.756;7.450;2023-09-19T06:47:39;14.80;99.90
19292;DHT22;9779;51.756;7.450;2023-09-19T06:50:05;14.90;1.00
19292;DHT22;9779;51.756;7.450;2023-09-19T06:52:32;15.00;1.00
19292;DHT22;9779;51.756;7.450;2023-09-19T06:54:58;15.10;1.00
19292;DHT22;9779;51.756;7.450;2023-09-19T06:57:24;15.20;1.00
19292;DHT22;9779;51.756;7.450;2023-09-19T06:59:50;15.30;1.00
19292;DHT22;9779;51.756;7.450;2023-09-19T07:02:15;15.30;99.90
19292;DHT22;9779;51.756;7.450;2023-09-19T07:04:41;15.40;1.00
19292;DHT22;9779;51.756;7.450;2023-09-19T07:07:07;15.40;99.90
19292;DHT22;9779;51.756;7.450;2023-09-19T07:09:34;15.50;99.90
19292;DHT22;9779;51.756;7.450;2023-09-19T07:12:00;15.60;1.00
19292;DHT22;9779;51.756;7.450;2023-09-19T07:14:26;15.70;1.00
19292;DHT22;9779;51.756;7.450;2023-09-19T07:16:51;15.70;97.70
19292;DHT22;9779;51.756;7.450;2023-09-19T07:19:17;15.70;1.00
19292;DHT22;9779;51.756;7.450;2023-09-19T07:21:43;15.60;99.90
19292;DHT22;9779;51.756;7.450;2023-09-19T07:24:08;15.60;73.20
19292;DHT22;9779;51.756;7.450;2023-09-19T07:26:34;15.50;99.90
19292;DHT22;9779;51.756;7.450;2023-09-19T07:29:00;15.50;99.90
19292;DHT22;9779;51.756;7.450;2023-09-19T07:31:27;15.50;1.00
19292;DHT22;9779;51.756;7.450;2023-09-19T07:33:54;15.50;99.90
19292;DHT22;9779;51.756;7.450;2023-09-19T07:36:19;15.60;1.00
19292;DHT22;9779;51.756;7.450;2023-09-19T07:38:45;15.50;1.00
19292;DHT22;9779;51.756;7.450;2023-09-19T07:41:11;15.50;1.00
19292;DHT22;9779;51.756;7.450;2023-09-19T07:43:37;15.50;99.90
19292;DHT22;9779;51.756;7.450;2023-09-19T07:46:07;15.50;1.00
19292;DHT22;9779;51.756;7.450;2023-09-19T07:48:35;15.50;1.00
19292;DHT22;9779;51.756;7.450;2023-09-19T07:51:06;15.50;1.00
19292;DHT22;9779;51.756;7.450;2023-09-19T07:53:33;15.60;1.00
19292;DHT22;9779;51.756;7.450;2023-09-19T07:56:06;15.60;1.00
19292;DHT22;9779;51.756;7.450;2023-09-19T07:58:32;15.70;1.00
19292;DHT22;9779;51.756;7.450;2023-09-19T08:01:09;15.80;99.90
19292;DHT22;9779;51.756;7.450;2023-09-19T08:03:36;15.90;1.00
19292;DHT22;9779;51.756;7.450;2023-09-19T08:06:06;15.80;1.00
19292;DHT22;9779;51.756;7.450;2023-09-19T08:08:32;15.90;99.90
19292;DHT22;9779;51.756;7.450;2023-09-19T08:10:59;15.90;1.00
19292;DHT22;9779;51.756;7.450;2023-09-19T08:13:25;15.90;1.00
19292;DHT22;9779;51.756;7.450;2023-09-19T08:15:52;15.90;1.00
19292;DHT22;9779;51.756;7.450;2023-09-19T08:18:22;15.90;1.00
19292;DHT22;9779;51.756;7.450;2023-09-19T08:20:52;15.90;99.90
19292;DHT22;9779;51.756;7.450;2023-09-19T08:23:18;15.90;1.00
19292;DHT22;9779;51.756;7.450;2023-09-19T08:25:47;16.00;1.00
19292;DHT22;9779;51.756;7.450;2023-09-19T08:28:13;15.90;1.00
19292;DHT22;9779;51.756;7.450;2023-09-19T08:30:45;16.00;1.00
19292;DHT22;9779;51.756;7.450;2023-09-19T08:33:14;16.00;1.00
19292;DHT22;9779;51.756;7.450;2023-09-19T08:35:41;16.00;1.00
19292;DHT22;9779;51.756;7.450;2023-09-19T08:38:09;16.00;99.90
19292;DHT22;9779;51.756;7.450;2023-09-19T08:40:39;16.00;1.00
19292;DHT22;9779;51.756;7.450;2023-09-19T08:43:06;16.10;1.00
19292;DHT22;9779;51.756;7.450;2023-09-19T08:45:33;16.10;99.90
19292;DHT22;9779;51.756;7.450;2023-09-19T08:51:18;16.20;99.90
19292;DHT22;9779;51.756;7.450;2023-09-19T08:54:03;16.20;99.90
19292;DHT22;9779;51.756;7.450;2023-09-19T08:56:30;16.10;1.00
19292;DHT22;9779;51.756;7.450;2023-09-19T08:59:03;16.20;1.00
19292;DHT22;9779;51.756;7.450;2023-09-19T09:01:53;16.30;1.00
19292;DHT22;9779;51.756;7.450;2023-09-19T09:04:19;16.30;1.00
19292;DHT22;9779;51.756;7.450;2023-09-19T09:06:46;16.40;1.00
19292;DHT22;9779;51.756;7.450;2023-09-19T09:09:19;16.40;99.90
19292;DHT22;9779;51.756;7.450;2023-09-19T09:11:54;16.40;1.00
19292;DHT22;9779;51.756;7.450;2023-09-19T09:14:28;16.50;1.00
19292;DHT22;9779;51.756;7.450;2023-09-19T09:16:55;16.40;99.90
19292;DHT22;9779;51.756;7.450;2023-09-19T09:19:27;16.50;99.90
19292;DHT22;9779;51.756;7.450;2023-09-19T09:21:52;16.50;99.90
19292;DHT22;9779;51.756;7.450;2023-09-19T09:27:04;16.60;1.00
19292;DHT22;9779;51.756;7.450;2023-09-19T09:29:45;16.70;1.00
19292;DHT22;9779;51.756;7.450;2023-09-19T09:32:29;16.80;1.00
19292;DHT22;9779;51.756;7.450;2023-09-19T09:35:07;16.80;1.00
19292;DHT22;9779;51.756;7.450;2023-09-19T09:37:43;16.90;1.00
19292;DHT22;9779;51.756;7.450;2023-09-19T09:40:08;17.00;99.90
19292;DHT22;9779;51.756;7.450;2023-09-19T09:42:40;17.00;99.90
19292;DHT22;9779;51.756;7.450;2023-09-19T09:45:22;17.10;1.00
19292;DHT22;9779;51.756;7.450;2023-09-19T09:47:56;17.10;1.00
19292;DHT22;9779;51.756;7.450;2023-09-19T09:50:29;17.10;99.90
19292;DHT22;9779;51.756;7.450;2023-09-19T09:53:19;17.10;1.00
19292;DHT22;9779;51.756;7.450;2023-09-19T09:56:09;17.10;99.90
19292;DHT22;9779;51.756;7.450;2023-09-19T09:58:52;17.20;1.00
19292;DHT22;9779;51.756;7.450;2023-09-19T10:01:28;17.30;99.90
19292;DHT22;9779;51.756;7.450;2023-09-19T10:04:27;17.30;99.90
19292;DHT22;9779;51.756;7.450;2023-09-19T10:07:04;17.30;99.90
19292;DHT22;9779;51.756;7.450;2023-09-19T10:09:46;17.40;21.30
19292;DHT22;9779;51.756;7.450;2023-09-19T10:12:18;17.40;1.00
19292;DHT22;9779;51.756;7.450;2023-09-19T10:14:44;17.50;99.90
19292;DHT22;9779;51.756;7.450;2023-09-19T10:17:18;17.40;99.90
19292;DHT22;9779;51.756;7.450;2023-09-19T10:19:54;17.50;99.90
19292;DHT22;9779;51.756;7.450;2023-09-19T10:22:26;17.60;1.00
19292;DHT22;9779;51.756;7.450;2023-09-19T10:25:01;17.60;1.00
19292;DHT22;9779;51.756;7.450;2023-09-19T10:27:29;17.80;1.00
19292;DHT22;9779;51.756;7.450;2023-09-19T10:30:05;17.80;99.90
19292;DHT22;9779;51.756;7.450;2023-09-19T10:32:38;17.90;42.70
19292;DHT22;9779;51.756;7.450;2023-09-19T10:35:05;17.90;99.90
19292;DHT22;9779;51.756;7.450;2023-09-19T10:37:32;18.00;1.00
19292;DHT22;9779;51.756;7.450;2023-09-19T10:40:06;18.00;1.00
19292;DHT22;9779;51.756;7.450;2023-09-19T10:42:40;18.00;99.90
19292;DHT22;9779;51.756;7.450;2023-09-19T10:45:08;18.00;99.90
19292;DHT22;9779;51.756;7.450;2023-09-19T10:47:39;18.00;1.00
19292;DHT22;9779;51.756;7.450;2023-09-19T10:50:06;18.00;1.00
19292;DHT22;9779;51.756;7.450;2023-09-19T10:52:41;18.10;1.00
19292;DHT22;9779;51.756;7.450;2023-09-19T10:55:08;18.20;1.00
19292;DHT22;9779;51.756;7.450;2023-09-19T10:57:36;18.20;1.00
19292;DHT22;9779;51.756;7.450;2023-09-19T11:00:06;18.20;1.00
19292;DHT22;9779;51.756;7.450;2023-09-19T11:05:41;18.30;1.00
19292;DHT22;9779;51.756;7.450;2023-09-19T11:08:10;18.50;1.00
19292;DHT22;9779;51.756;7.450;2023-09-19T11:10:47;18.60;99.90
19292;DHT22;9779;51.756;7.450;2023-09-19T11:13:29;18.80;99.90
19292;DHT22;9779;51.756;7.450;2023-09-19T11:16:11;18.90;31.60
19292;DHT22;9779;51.756;7.450;2023-09-19T11:27:13;18.70;1.00
19292;DHT22;9779;51.756;7.450;2023-09-19T11:29:40;18.60;99.90
19292;DHT22;9779;51.756;7.450;2023-09-19T11:32:06;18.60;99.90
19292;DHT22;9779;51.756;7.450;2023-09-19T11:34:42;18.60;99.90
19292;DHT22;9779;51.756;7.450;2023-09-19T11:40:06;18.60;99.90
19292;DHT22;9779;51.756;7.450;2023-09-19T11:42:45;18.80;1.00
19292;DHT22;9779;51.756;7.450;2023-09-19T11:48:13;19.00;99.90
19292;DHT22;9779;51.756;7.450;2023-09-19T11:50:44;19.10;99.90
19292;DHT22;9779;51.756;7.450;2023-09-19T11:53:13;19.10;99.90
19292;DHT22;9779;51.756;7.450;2023-09-19T11:55:42;19.20;77.30
19292;DHT22;9779;51.756;7.450;2023-09-19T11:58:13;19.10;1.00
19292;DHT22;9779;51.756;7.450;2023-09-19T12:00:40;19.10;1.00
19292;DHT22;9779;51.756;7.450;2023-09-19T12:03:16;19.20;1.00
19292;DHT22;9779;51.756;7.450;2023-09-19T12:05:43;19.40;1.00
19292;DHT22;9779;51.756;7.450;2023-09-19T12:10:50;19.60;1.00
19292;DHT22;9779;51.756;7.450;2023-09-19T12:13:19;19.50;1.00
19292;DHT22;9779;51.756;7.450;2023-09-19T12:15:46;19.50;1.00
19292;DHT22;9779;51.756;7.450;2023-09-19T12:18:30;19.50;1.00
19292;DHT22;9779;51.756;7.450;2023-09-19T12:20:56;19.60;1.00
19292;DHT22;9779;51.756;7.450;2023-09-19T12:23:23;19.50;1.00
19292;DHT22;9779;51.756;7.450;2023-09-19T12:25:49;19.60;1.00
19292;DHT22;9779;51.756;7.450;2023-09-19T12:28:19;19.80;1.00
19292;DHT22;9779;51.756;7.450;2023-09-19T12:30:47;19.90;1.00
19292;DHT22;9779;51.756;7.450;2023-09-19T12:33:20;20.00;1.00
19292;DHT22;9779;51.756;7.450;2023-09-19T12:35:50;20.20;1.00
19292;DHT22;9779;51.756;7.450;2023-09-19T12:38:26;20.30;99.90
19292;DHT22;9779;51.756;7.450;2023-09-19T12:41:03;20.60;1.00
19292;DHT22;9779;51.756;7.450;2023-09-19T12:43:33;20.60;99.90
19292;DHT22;9779;51.756;7.450;2023-09-19T12:46:05;20.90;99.90
19292;DHT22;9779;51.756;7.450;2023-09-19T12:48:31;21.00;99.90
19292;DHT22;9779;51.756;7.450;2023-09-19T12:51:05;21.00;1.00
19292;DHT22;9779;51.756;7.450;2023-09-19T12:53:41;21.10;1.00
19292;DHT22;9779;51.756;7.450;2023-09-19T12:56:15;20.90;1.00
19292;DHT22;9779;51.756;7.450;2023-09-19T12:58:54;20.70;1.00
19292;DHT22;9779;51.756;7.450;2023-09-19T13:01:20;20.40;1.00
19292;DHT22;9779;51.756;7.450;2023-09-19T13:03:46;20.30;1.00
19292;DHT22;9779;51.756;7.450;2023-09-19T13:06:38;20.30;1.00
19292;DHT22;9779;51.756;7.450;2023-09-19T13:09:09;20.30;1.00
19292;DHT22;9779;51.756;7.450;2023-09-19T13:11:42;20.40;1.00
19292;DHT22;9779;51.756;7.450;2023-09-19T13:14:28;20.30;1.00
19292;DHT22;9779;51.756;7.450;2023-09-19T13:17:07;20.20;1.00
19292;DHT22;9779;51.756;7.450;2023-09-19T13:19:46;20.30;1.00
19292;DHT22;9779;51.756;7.450;2023-09-19T13:25:28;20.60;1.00
19292;DHT22;9779;51.756;7.450;2023-09-19T13:27:56;20.50;1.00
19292;DHT22;9779;51.756;7.450;2023-09-19T13:30:31;20.60;1.00
19292;DHT22;9779;51.756;7.450;2023-09-19T13:33:08;20.80;1.00
19292;DHT22;9779;51.756;7.450;2023-09-19T13:35:35;21.10;1.00
19292;DHT22;9779;51.756;7.450;2023-09-19T13:38:05;21.40;1.00
19292;DHT22;9779;51.756;7.450;2023-09-19T13:40:32;21.40;1.00
19292;DHT22;9779;51.756;7.450;2023-09-19T13:43:06;21.50;1.00
19292;DHT22;9779;51.756;7.450;2023-09-19T13:45:32;21.60;99.90
19292;DHT22;9779;51.756;7.450;2023-09-19T13:47:58;21.70;99.90
19292;DHT22;9779;51.756;7.450;2023-09-19T13:50:27;21.70;99.90
19292;DHT22;9779;51.756;7.450;2023-09-19T13:52:54;21.70;99.90
19292;DHT22;9779;51.756;7.450;2023-09-19T13:55:20;22.00;99.90
19292;DHT22;9779;51.756;7.450;2023-09-19T13:57:49;22.30;99.90
19292;DHT22;9779;51.756;7.450;2023-09-19T14:00:22;22.30;99.90
19292;DHT22;9779;51.756;7.450;2023-09-19T14:02:54;22.20;99.90
19292;DHT22;9779;51.756;7.450;2023-09-19T14:05:19;22.00;99.90
19292;DHT22;9779;51.756;7.450;2023-09-19T14:07:46;22.00;99.90
19292;DHT22;9779;51.756;7.450;2023-09-19T14:10:12;21.80;99.90
19292;DHT22;9779;51.756;7.450;2023-09-19T14:12:40;21.70;99.90
19292;DHT22;9779;51.756;7.450;2023-09-19T14:15:07;21.40;99.90
19292;DHT22;9779;51.756;7.450;2023-09-19T14:17:33;21.20;99.90
19292;DHT22;9779;51.756;7.450;2023-09-19T14:19:59;21.10;99.90
19292;DHT22;9779;51.756;7.450;2023-09-19T14:22:25;21.00;99.90
19292;DHT22;9779;51.756;7.450;2023-09-19T14:24:51;20.90;99.90
19292;DHT22;9779;51.756;7.450;2023-09-19T14:27:18;20.90;99.90
19292;DHT22;9779;51.756;7.450;2023-09-19T14:29:44;20.60;99.90
19292;DHT22;9779;51.756;7.450;2023-09-19T14:32:10;20.60;99.90
19292;DHT22;9779;51.756;7.450;2023-09-19T14:34:38;20.60;99.90
19292;DHT22;9779;51.756;7.450;2023-09-19T14:37:08;20.40;99.90
19292;DHT22;9779;51.756;7.450;2023-09-19T14:39:34;20.20;99.90
19292;DHT22;9779;51.756;7.450;2023-09-19T14:41:59;20.30;1.00
19292;DHT22;9779;51.756;7.450;2023-09-19T14:44:34;20.10;1.00
19292;DHT22;9779;51.756;7.450;2023-09-19T14:47:00;20.20;1.00
19292;DHT22;9779;51.756;7.450;2023-09-19T14:49:30;20.20;1.00
19292;DHT22;9779;51.756;7.450;2023-09-19T14:51:58;20.20;1.00
19292;DHT22;9779;51.756;7.450;2023-09-19T14:54:23;20.10;1.00
19292;DHT22;9779;51.756;7.450;2023-09-19T14:56:53;20.10;1.00
19292;DHT22;9779;51.756;7.450;2023-09-19T14:59:30;20.00;1.00
19292;DHT22;9779;51.756;7.450;2023-09-19T15:01:57;19.90;1.00
19292;DHT22;9779;51.756;7.450;2023-09-19T15:04:23;19.80;1.00
19292;DHT22;9779;51.756;7.450;2023-09-19T15:06:52;19.90;1.00
19292;DHT22;9779;51.756;7.450;2023-09-19T15:09:21;19.80;1.00
19292;DHT22;9779;51.756;7.450;2023-09-19T15:11:53;19.70;1.00
19292;DHT22;9779;51.756;7.450;2023-09-19T15:14:19;19.80;1.00
19292;DHT22;9779;51.756;7.450;2023-09-19T15:16:45;19.70;1.00
19292;DHT22;9779;51.756;7.450;2023-09-19T15:19:10;19.70;1.00
19292;DHT22;9779;51.756;7.450;2023-09-19T15:21:36;19.70;1.00
19292;DHT22;9779;51.756;7.450;2023-09-19T15:24:08;19.70;1.00
19292;DHT22;9779;51.756;7.450;2023-09-19T15:26:35;19.80;1.00
19292;DHT22;9779;51.756;7.450;2023-09-19T15:29:07;19.80;1.00
19292;DHT22;9779;51.756;7.450;2023-09-19T15:31:36;19.70;1.00
19292;DHT22;9779;51.756;7.450;2023-09-19T15:34:07;19.70;1.00
19292;DHT22;9779;51.756;7.450;2023-09-19T15:36:33;19.70;1.00
19292;DHT22;9779;51.756;7.450;2023-09-19T15:39:04;19.60;1.00
19292;DHT22;9779;51.756;7.450;2023-09-19T15:41:42;19.70;1.00
19292;DHT22;9779;51.756;7.450;2023-09-19T15:44:18;19.70;1.00
19292;DHT22;9779;51.756;7.450;2023-09-19T15:46:44;19.80;24.60
19292;DHT22;9779;51.756;7.450;2023-09-19T15:49:10;19.90;47.00
19292;DHT22;9779;51.756;7.450;2023-09-19T15:51:36;19.90;1.00
19292;DHT22;9779;51.756;7.450;2023-09-19T15:54:08;20.10;1.00
19292;DHT22;9779;51.756;7.450;2023-09-19T15:56:34;20.00;1.00
19292;DHT22;9779;51.756;7.450;2023-09-19T15:59:05;19.90;1.00
19292;DHT22;9779;51.756;7.450;2023-09-19T16:01:31;20.10;1.00
19292;DHT22;9779;51.756;7.450;2023-09-19T16:03:57;20.00;1.00
19292;DHT22;9779;51.756;7.450;2023-09-19T16:06:27;20.00;1.00
19292;DHT22;9779;51.756;7.450;2023-09-19T16:09:00;19.90;1.00
19292;DHT22;9779;51.756;7.450;2023-09-19T16:11:31;19.90;20.30
19292;DHT22;9779;51.756;7.450;2023-09-19T16:13:57;19.80;1.00
19292;DHT22;9779;51.756;7.450;2023-09-19T16:16:24;19.70;60.80
19292;DHT22;9779;51.756;7.450;2023-09-19T16:18:55;19.70;99.90
19292;DHT22;9779;51.756;7.450;2023-09-19T16:21:33;19.50;81.60
19292;DHT22;9779;51.756;7.450;2023-09-19T16:24:00;19.50;99.90
19292;DHT22;9779;51.756;7.450;2023-09-19T16:26:32;19.40;99.90
19292;DHT22;9779;51.756;7.450;2023-09-19T16:28:58;19.40;99.90
19292;DHT22;9779;51.756;7.450;2023-09-19T16:31:42;19.40;99.90
19292;DHT22;9779;51.756;7.450;2023-09-19T16:34:07;19.30;99.90
19292;DHT22;9779;51.756;7.450;2023-09-19T16:36:34;19.20;99.90
19292;DHT22;9779;51.756;7.450;2023-09-19T16:39:00;19.30;99.90
19292;DHT22;9779;51.756;7.450;2023-09-19T16:41:32;19.20;99.90
19292;DHT22;9779;51.756;7.450;2023-09-19T16:43:58;19.30;1.00
19292;DHT22;9779;51.756;7.450;2023-09-19T16:46:24;19.40;1.00
19292;DHT22;9779;51.756;7.450;2023-09-19T16:48:50;19.40;1.00
19292;DHT22;9779;51.756;7.450;2023-09-19T16:51:16;19.30;1.00